Normandy, TN (37360)

8:45 AM CDT on October 01, 2014 (GMT -0500)
tullahoma tenn | Change Station
CLOSE
Current Station
Personal Weather Station
Location: Tullahoma, TN
Elevation: 1083 ft
Nearby Weather Stations

Elev 1083 ft 35.36 °N, 86.23 °W | Updated 6 minutes ago

Clear
Clear
65.7 °F
Feels Like 65.7 °F
N
1.1
Wind Variable Wind from SSE

Today
High -- | Low -- °F
--% Chance of Precip.
Yesterday
High -- | Low -- °F
Precip. -- in
6:39 AM 6:28 PM
Waxing Crescent, 47% visible
Pressure 30.02 in
Visibility 10.0 miles
Clouds Clear
Dew Point 59 °F
Humidity 80%
Rainfall 0.00 in
Snow Depth Not available.
UV 1 out of 12
Pollen 5.40 out of 12
Air Quality Not available.
Flu Activity Not available.
METAR KTHA 011315Z AUTO 00000KT 10SM CLR 16/13 A3002 RMK

More Conditions Fewer Conditions

Pressure 30.02 in
Visibility 10.0 miles
Clouds Clear
Dew Point 59 °F
Humidity 80%
Rainfall 0.00 in
Snow Depth Not available.
UV 1 out of 12
Pollen 5.40 out of 12
Air Quality Not available.
Flu Activity Not available.
METAR KTHA 011315Z AUTO 00000KT 10SM CLR 16/13 A3002 RMK

More Conditions Fewer Conditions

10-Day Weather Forecast

Almanac

Astronomy

Oct. 01, 2014 Rise Set
Actual Time 6:39 AM CDT 6:28 PM CDT
Civil Twilight 6:14 AM CDT 6:54 PM CDT
Nautical Twilight 5:44 AM CDT 7:23 PM CDT
Astronomical Twilight 5:15 AM CDT 7:53 PM CDT
Moon 1:31 PM CDT No Moon Set
Length of Visible Light 12h 39m
Length of Day
11h 48m
Tomorrow will be 2m 12s shorter.
Waxing Crescent, 47% of the Moon is Illuminated
Today
Waxing Crescent
Oct 1
First Quarter
Oct 8
Full
Oct 15
Last Quarter
Oct 23
New

Today's Extremes

State Highs State Lows

Community

WunderPhotos

Upload Photos

1,757,942 photos uploaded!

Nearby

Snow Depth

Station Depth Elevation
No new snow has been reported.

Earthquake Activity

City Distance Mag. Time & Date
No recent earthquake activity has been reported nearby.
Minimum magnitude displayed is 2.5.

Coastal Water Temperatures

Place Temperature
No Stations Reporting

Nearby Weather Stations